Time;durP1;ratioP1;P1;durP2;ratioP2;P2;SDS_P1;SDS_P2;PMS_P1;PMS_P2;Temp;Humidity;BMP_temperature;BMP_pressure;BME280_temperature;BME280_humidity;BME280_pressure;Samples;Min_cycle;Max_cycle;Signal;HPM_P1;HPM_P2
2023/12/29 00:02:01;;;;;;;14.73;2.10;;;11.60;99.90;;;;;;7289055;19;20191;-81
2023/12/29 00:04:27;;;;;;;15.13;2.13;;;11.60;99.90;;;;;;7287339;19;20687;-83
2023/12/29 00:06:53;;;;;;;12.93;2.23;;;11.70;99.90;;;;;;7287211;19;20190;-82
2023/12/29 00:09:22;;;;;;;10.40;1.73;;;11.70;99.90;;;;;;7308284;19;20250;-82
2023/12/29 00:11:49;;;;;;;17.97;2.30;;;11.80;99.90;;;;;;7308690;19;21011;-82
2023/12/29 00:14:15;;;;;;;15.73;2.10;;;11.90;99.90;;;;;;7286701;19;20186;-82
2023/12/29 00:16:41;;;;;;;13.83;2.50;;;11.80;99.90;;;;;;7286639;19;20199;-82
2023/12/29 00:19:07;;;;;;;15.93;2.00;;;11.80;99.90;;;;;;7286455;19;20225;-82
2023/12/29 00:21:33;;;;;;;13.77;2.17;;;11.80;99.90;;;;;;7285765;19;20247;-83
2023/12/29 00:23:58;;;;;;;18.50;2.37;;;11.80;99.90;;;;;;7283493;19;20223;-82
2023/12/29 00:26:24;;;;;;;11.53;2.00;;;11.80;99.90;;;;;;7284727;19;20315;-82
2023/12/29 00:28:57;;;;;;;15.80;2.40;;;11.80;99.90;;;;;;7285058;19;20196;-82
2023/12/29 00:31:23;;;;;;;11.73;2.10;;;11.80;99.90;;;;;;7286258;19;20262;-82
2023/12/29 00:33:52;;;;;;;19.13;2.33;;;11.80;99.90;;;;;;7299498;19;20192;-82
2023/12/29 00:36:20;;;;;;;14.43;2.27;;;11.70;99.90;;;;;;7309352;19;20183;-83
2023/12/29 00:38:46;;;;;;;16.07;2.03;;;11.80;99.90;;;;;;7287558;19;20185;-83
2023/12/29 00:41:11;;;;;;;16.83;2.50;;;11.70;99.90;;;;;;7287379;19;20218;-82
2023/12/29 00:43:37;;;;;;;12.67;2.10;;;11.80;99.90;;;;;;7287912;19;20611;-83
2023/12/29 00:46:04;;;;;;;12.37;1.93;;;11.80;99.90;;;;;;7287779;19;20692;-83
2023/12/29 00:48:33;;;;;;;15.97;2.60;;;11.80;99.90;;;;;;7286709;19;20195;-82
2023/12/29 00:51:01;;;;;;;16.93;2.17;;;11.80;99.90;;;;;;7283947;19;20262;-83
2023/12/29 00:53:27;;;;;;;13.97;2.00;;;11.80;99.90;;;;;;7285341;19;20213;-82
2023/12/29 00:55:52;;;;;;;12.00;2.00;;;11.80;99.90;;;;;;7287384;19;20236;-82
2023/12/29 00:58:18;;;;;;;10.03;1.70;;;11.90;99.90;;;;;;7309360;19;20206;-83
2023/12/29 01:00:44;;;;;;;12.10;2.07;;;11.90;99.90;;;;;;7286912;19;20218;-82
2023/12/29 01:03:10;;;;;;;15.60;2.13;;;11.90;99.90;;;;;;7286323;19;20214;-83
2023/12/29 01:05:35;;;;;;;13.70;2.07;;;11.90;99.90;;;;;;7287412;19;20191;-83
2023/12/29 01:08:01;;;;;;;14.27;2.10;;;12.00;99.90;;;;;;7286387;19;20212;-83
2023/12/29 01:10:27;;;;;;;11.53;2.00;;;12.00;99.90;;;;;;7285843;19;20195;-83
2023/12/29 01:12:52;;;;;;;11.10;2.07;;;12.00;99.90;;;;;;7284261;19;20260;-83
2023/12/29 01:15:18;;;;;;;14.67;1.97;;;12.10;99.90;;;;;;7305889;19;20200;-83
2023/12/29 01:17:45;;;;;;;17.90;2.40;;;12.10;99.90;;;;;;7285752;19;20185;-82
2023/12/29 01:20:13;;;;;;;16.60;1.90;;;12.00;99.90;;;;;;7285714;19;20197;-83
2023/12/29 01:22:38;;;;;;;18.50;2.20;;;12.00;99.90;;;;;;7285707;19;20199;-83
2023/12/29 01:25:05;;;;;;;15.00;2.20;;;12.10;99.90;;;;;;7286239;19;20641;-83
2023/12/29 01:27:31;;;;;;;16.07;2.30;;;12.10;99.90;;;;;;7284672;19;20196;-82
2023/12/29 01:29:57;;;;;;;16.73;2.00;;;12.10;99.90;;;;;;7285024;19;20192;-83
2023/12/29 01:32:23;;;;;;;14.17;2.00;;;12.10;99.90;;;;;;7285072;19;20189;-83
2023/12/29 01:34:48;;;;;;;15.80;2.33;;;12.00;99.90;;;;;;7308294;19;20193;-83
2023/12/29 01:37:14;;;;;;;15.17;2.10;;;12.10;99.90;;;;;;7284699;19;20203;-83
2023/12/29 01:39:40;;;;;;;16.30;2.27;;;12.10;99.90;;;;;;7285586;19;20198;-83
2023/12/29 01:42:06;;;;;;;15.20;2.00;;;12.10;99.90;;;;;;7285866;19;20549;-82
2023/12/29 01:44:32;;;;;;;13.77;1.90;;;11.90;99.90;;;;;;7285920;19;20192;-83
2023/12/29 01:47:02;;;;;;;13.00;2.07;;;12.00;99.90;;;;;;7286221;19;20197;-83
2023/12/29 01:49:28;;;;;;;13.53;1.90;;;12.00;99.90;;;;;;7285461;19;20701;-83
2023/12/29 01:51:59;;;;;;;14.10;2.03;;;12.00;99.90;;;;;;7285344;19;20238;-83
2023/12/29 01:54:28;;;;;;;15.53;2.17;;;12.00;99.90;;;;;;7284971;19;20200;-83
2023/12/29 01:56:56;;;;;;;9.47;1.67;;;12.10;99.90;;;;;;7284941;19;20196;-83
2023/12/29 01:59:24;;;;;;;17.83;2.53;;;12.10;99.90;;;;;;7284647;19;20628;-82
2023/12/29 02:01:50;;;;;;;13.13;1.70;;;12.10;99.90;;;;;;7303731;19;20188;-83
2023/12/29 02:04:17;;;;;;;11.60;1.80;;;12.10;99.90;;;;;;7294076;19;20189;-83
2023/12/29 02:06:43;;;;;;;14.10;1.90;;;12.10;99.90;;;;;;7284275;19;20660;-83
2023/12/29 02:09:09;;;;;;;10.70;1.80;;;12.10;99.90;;;;;;7283232;19;20217;-82
2023/12/29 02:11:35;;;;;;;12.67;2.00;;;12.10;99.90;;;;;;7284493;19;20197;-82
2023/12/29 02:14:02;;;;;;;16.27;2.10;;;12.20;99.90;;;;;;7284301;19;20195;-82
2023/12/29 02:16:33;;;;;;;14.10;1.67;;;12.20;99.90;;;;;;7284826;19;20193;-82
2023/12/29 02:19:04;;;;;;;9.77;1.43;;;12.10;99.90;;;;;;7285533;19;20192;-82
2023/12/29 02:21:29;;;;;;;9.03;1.80;;;12.10;99.90;;;;;;7285172;19;20189;-83
2023/12/29 02:23:56;;;;;;;13.80;2.00;;;12.20;99.90;;;;;;7282948;19;20655;-82
2023/12/29 02:26:29;;;;;;;17.40;2.17;;;12.10;99.90;;;;;;7285393;19;20191;-83
2023/12/29 02:29:00;;;;;;;12.37;1.90;;;12.10;99.90;;;;;;7283216;19;20196;-82
2023/12/29 02:31:29;;;;;;;12.00;1.70;;;12.10;99.90;;;;;;7284768;19;20200;-83
2023/12/29 02:33:56;;;;;;;16.03;1.80;;;12.10;99.90;;;;;;7284004;19;20189;-83
2023/12/29 02:36:23;;;;;;;16.80;2.20;;;12.00;99.90;;;;;;7283174;19;20587;-83
2023/12/29 02:38:49;;;;;;;16.53;2.47;;;12.00;99.90;;;;;;7304301;19;20535;-82
2023/12/29 02:41:15;;;;;;;14.17;2.30;;;11.90;99.90;;;;;;7286686;19;20255;-83
2023/12/29 02:43:41;;;;;;;12.73;1.77;;;11.90;99.90;;;;;;7283871;19;20174;-83
2023/12/29 02:46:07;;;;;;;12.77;2.00;;;11.80;99.90;;;;;;7284249;19;20684;-83
2023/12/29 02:48:33;;;;;;;14.40;1.93;;;11.80;99.90;;;;;;7283499;19;20196;-83
2023/12/29 02:50:58;;;;;;;15.30;2.00;;;11.80;99.90;;;;;;7282595;19;21113;-83
2023/12/29 02:53:24;;;;;;;13.20;2.10;;;11.80;99.90;;;;;;7283329;19;20589;-83
2023/12/29 02:55:51;;;;;;;14.90;2.50;;;11.80;99.90;;;;;;7290939;19;20195;-83
2023/12/29 02:58:17;;;;;;;11.07;1.67;;;11.70;99.90;;;;;;7305358;19;20185;-83
2023/12/29 03:00:42;;;;;;;15.20;2.13;;;11.70;99.90;;;;;;7283459;19;20187;-83
2023/12/29 03:03:08;;;;;;;15.87;2.00;;;11.70;99.90;;;;;;7283231;19;20222;-83
2023/12/29 03:05:34;;;;;;;15.10;2.00;;;11.70;99.90;;;;;;7281018;19;20194;-82
2023/12/29 03:08:00;;;;;;;16.00;2.10;;;11.80;99.90;;;;;;7281305;19;20252;-83
2023/12/29 03:10:25;;;;;;;17.10;2.23;;;11.80;99.90;;;;;;7281381;19;20284;-83
2023/12/29 03:12:51;;;;;;;15.23;2.43;;;11.90;99.90;;;;;;7288429;19;20574;-83
2023/12/29 03:15:17;;;;;;;15.00;1.97;;;11.90;99.90;;;;;;7306241;19;20649;-83
2023/12/29 03:17:42;;;;;;;14.37;2.13;;;11.90;99.90;;;;;;7289215;19;20179;-83
2023/12/29 03:20:09;;;;;;;14.50;2.07;;;11.80;99.90;;;;;;7288575;19;20188;-83
2023/12/29 03:22:34;;;;;;;19.17;2.23;;;11.90;99.90;;;;;;7289317;19;20190;-83
2023/12/29 03:25:00;;;;;;;13.80;1.90;;;12.00;99.90;;;;;;7288772;19;20205;-83
2023/12/29 03:27:26;;;;;;;12.17;1.80;;;12.00;99.90;;;;;;7288557;19;20751;-83
2023/12/29 03:29:54;;;;;;;12.50;2.10;;;11.90;99.90;;;;;;7290013;19;20189;-83
2023/12/29 03:32:20;;;;;;;12.57;1.73;;;11.90;99.90;;;;;;7301059;19;20297;-83
2023/12/29 03:34:46;;;;;;;15.73;2.43;;;11.90;99.90;;;;;;7306642;19;20195;-82
2023/12/29 03:37:12;;;;;;;15.23;2.10;;;11.90;99.90;;;;;;7289129;19;20188;-83
2023/12/29 03:39:38;;;;;;;16.97;2.20;;;11.70;99.90;;;;;;7288890;19;20199;-83
2023/12/29 03:42:04;;;;;;;10.90;1.73;;;11.70;99.90;;;;;;7289851;19;20186;-83
2023/12/29 03:44:30;;;;;;;16.47;2.00;;;11.50;99.90;;;;;;7289109;19;20175;-83
2023/12/29 03:46:55;;;;;;;17.53;2.63;;;11.50;99.90;;;;;;7288729;19;21135;-83
2023/12/29 03:49:21;;;;;;;13.70;2.13;;;11.60;99.90;;;;;;7291761;19;20208;-83
2023/12/29 03:51:47;;;;;;;12.53;1.60;;;11.60;99.90;;;;;;7310456;19;20267;-83
2023/12/29 03:54:15;;;;;;;13.80;2.13;;;11.60;99.90;;;;;;7289518;19;20236;-83
2023/12/29 03:56:40;;;;;;;12.83;2.00;;;11.60;99.90;;;;;;7287854;19;20273;-82
2023/12/29 03:59:06;;;;;;;17.47;1.90;;;11.60;99.90;;;;;;7288316;19;20315;-83
2023/12/29 04:01:34;;;;;;;12.67;1.90;;;11.60;99.90;;;;;;7286676;19;20196;-83
2023/12/29 04:04:00;;;;;;;12.77;2.30;;;11.60;99.90;;;;;;7287383;19;20180;-83
2023/12/29 04:06:25;;;;;;;14.83;2.23;;;11.60;99.90;;;;;;7287189;19;20614;-83
2023/12/29 04:08:51;;;;;;;15.67;2.43;;;11.50;99.90;;;;;;7294351;19;20181;-83
2023/12/29 04:11:17;;;;;;;18.07;2.30;;;11.40;99.90;;;;;;7309714;19;20221;-83
2023/12/29 04:13:43;;;;;;;15.37;2.30;;;11.30;99.90;;;;;;7287199;19;20208;-83
2023/12/29 04:16:09;;;;;;;12.10;1.93;;;11.30;99.90;;;;;;7288252;19;20191;-82
2023/12/29 04:18:35;;;;;;;17.87;2.00;;;11.30;99.90;;;;;;7288643;19;20196;-83
2023/12/29 04:21:00;;;;;;;15.80;2.50;;;11.30;99.90;;;;;;7287106;19;20198;-83
2023/12/29 04:23:26;;;;;;;16.63;2.07;;;11.20;99.90;;;;;;7287446;19;20611;-83
2023/12/29 04:25:52;;;;;;;14.43;2.40;;;11.30;99.90;;;;;;7287218;19;20191;-83
2023/12/29 04:28:18;;;;;;;19.93;2.17;;;11.20;99.90;;;;;;7308938;19;20203;-83
2023/12/29 04:30:44;;;;;;;16.67;2.47;;;11.20;99.90;;;;;;7286794;19;20188;-82
2023/12/29 04:33:10;;;;;;;17.17;1.87;;;11.20;99.90;;;;;;7288067;19;20236;-83
2023/12/29 04:35:35;;;;;;;11.93;2.13;;;11.20;99.90;;;;;;7287963;19;20187;-83
2023/12/29 04:38:01;;;;;;;12.23;1.93;;;11.10;99.90;;;;;;7287522;19;20189;-83
2023/12/29 04:40:27;;;;;;;13.63;2.20;;;11.10;99.90;;;;;;7287158;19;20313;-83
2023/12/29 04:42:53;;;;;;;14.17;1.93;;;11.10;99.90;;;;;;7287077;19;20223;-82
2023/12/29 04:45:19;;;;;;;14.80;2.37;;;11.10;99.90;;;;;;7308369;19;20184;-82
2023/12/29 04:47:44;;;;;;;15.33;2.13;;;11.20;99.90;;;;;;7286548;19;21024;-83
2023/12/29 04:50:10;;;;;;;12.70;2.10;;;11.20;99.90;;;;;;7287060;19;20210;-83
2023/12/29 04:52:36;;;;;;;12.87;1.90;;;11.20;99.90;;;;;;7285738;19;20192;-83
2023/12/29 04:55:02;;;;;;;13.70;2.10;;;11.20;99.90;;;;;;7288360;19;20656;-82
2023/12/29 04:57:28;;;;;;;17.50;3.03;;;11.20;99.90;;;;;;7287045;19;21046;-82
2023/12/29 04:59:53;;;;;;;10.87;1.70;;;11.30;99.90;;;;;;7286409;19;20196;-82
2023/12/29 05:02:19;;;;;;;15.63;2.27;;;11.30;99.90;;;;;;7307511;19;20191;-83
2023/12/29 05:04:46;;;;;;;14.00;2.17;;;11.30;99.90;;;;;;7287428;19;20187;-83
2023/12/29 05:07:12;;;;;;;16.60;1.90;;;11.30;99.90;;;;;;7286113;19;20218;-82
2023/12/29 05:09:37;;;;;;;17.30;2.07;;;11.40;99.90;;;;;;7286174;19;20191;-82
2023/12/29 05:12:03;;;;;;;15.33;2.80;;;11.40;99.90;;;;;;7287431;19;20249;-83
2023/12/29 05:14:29;;;;;;;17.02;2.33;;;11.40;99.90;;;;;;7284839;19;20740;-82
2023/12/29 05:16:55;;;;;;;18.67;2.33;;;11.40;99.90;;;;;;7286445;19;20220;-83
2023/12/29 05:19:21;;;;;;;14.97;2.23;;;11.50;99.90;;;;;;7300999;19;20181;-83
2023/12/29 05:21:50;;;;;;;15.67;2.47;;;11.50;99.90;;;;;;7301981;19;20188;-83
2023/12/29 05:24:16;;;;;;;11.97;1.90;;;11.60;99.90;;;;;;7286056;19;20260;-83
2023/12/29 05:26:42;;;;;;;17.37;2.00;;;11.60;99.90;;;;;;7286081;19;20230;-83
2023/12/29 05:29:08;;;;;;;13.20;2.10;;;11.60;99.90;;;;;;7284481;19;20232;-84
2023/12/29 05:31:34;;;;;;;16.50;2.43;;;11.60;99.90;;;;;;7284068;19;20223;-83
2023/12/29 05:33:59;;;;;;;15.70;2.13;;;11.70;99.90;;;;;;7286202;19;20189;-83
2023/12/29 05:36:26;;;;;;;10.50;2.10;;;11.70;99.90;;;;;;7285042;19;20504;-83
2023/12/29 05:38:51;;;;;;;15.60;2.43;;;11.70;99.90;;;;;;7290442;19;20236;-83
2023/12/29 05:41:19;;;;;;;16.30;2.77;;;11.70;99.90;;;;;;7306970;19;20185;-83
2023/12/29 05:43:44;;;;;;;14.93;2.33;;;11.70;99.90;;;;;;7284620;19;20204;-83
2023/12/29 05:46:14;;;;;;;14.87;1.77;;;11.80;99.90;;;;;;7286529;19;20201;-82
2023/12/29 05:48:40;;;;;;;14.73;2.00;;;11.80;99.90;;;;;;7286037;19;20193;-83
2023/12/29 05:51:12;;;;;;;21.00;2.33;;;11.70;99.90;;;;;;7283560;19;20327;-83
2023/12/29 05:53:39;;;;;;;16.23;2.17;;;11.60;99.90;;;;;;7284894;19;20195;-82
2023/12/29 05:56:05;;;;;;;12.67;2.20;;;11.70;99.90;;;;;;7283016;19;20201;-83
2023/12/29 05:58:31;;;;;;;20.93;2.57;;;11.70;99.90;;;;;;7284374;19;20649;-83
2023/12/29 06:00:58;;;;;;;15.30;2.43;;;11.60;99.90;;;;;;7284735;19;20192;-83
2023/12/29 06:03:24;;;;;;;16.17;2.07;;;11.30;99.90;;;;;;7284941;19;20584;-83
2023/12/29 06:05:51;;;;;;;17.77;2.20;;;11.20;99.90;;;;;;7300142;19;20188;-83
2023/12/29 06:08:16;;;;;;;15.03;2.23;;;11.20;99.90;;;;;;7300648;19;20195;-84
2023/12/29 06:10:42;;;;;;;14.53;2.40;;;11.10;99.90;;;;;;7284498;19;20309;-83
2023/12/29 06:13:08;;;;;;;17.20;2.07;;;11.00;99.90;;;;;;7286022;19;20839;-84
2023/12/29 06:15:34;;;;;;;15.73;2.03;;;11.00;99.90;;;;;;7285386;19;20285;-84
2023/12/29 06:18:00;;;;;;;18.43;2.20;;;10.90;99.90;;;;;;7283330;19;20192;-84
2023/12/29 06:20:26;;;;;;;18.07;2.27;;;10.90;99.90;;;;;;7283701;19;20200;-84
2023/12/29 06:22:52;;;;;;;11.63;1.73;;;10.80;99.90;;;;;;7289484;19;20188;-83
2023/12/29 06:25:17;;;;;;;20.43;2.67;;;10.80;99.90;;;;;;7306897;19;20697;-82
2023/12/29 06:27:43;;;;;;;18.80;2.13;;;10.80;99.90;;;;;;7283808;19;20947;-84
2023/12/29 06:30:12;;;;;;;14.57;2.43;;;10.80;99.90;;;;;;7282712;19;20245;-83
2023/12/29 06:32:39;;;;;;;19.27;2.23;;;10.90;99.90;;;;;;7283602;19;21015;-84
2023/12/29 06:35:06;;;;;;;20.00;2.27;;;10.90;99.90;;;;;;7283154;19;20645;-84
2023/12/29 06:37:32;;;;;;;18.17;2.30;;;10.80;99.90;;;;;;7281787;19;20213;-83
2023/12/29 06:39:58;;;;;;;16.37;2.30;;;10.70;99.90;;;;;;7279876;19;20192;-83
2023/12/29 06:42:24;;;;;;;20.43;2.50;;;10.80;99.90;;;;;;7281403;19;20187;-83
2023/12/29 06:44:50;;;;;;;16.97;2.20;;;10.80;99.90;;;;;;7304482;19;20195;-84
2023/12/29 06:47:16;;;;;;;11.40;2.40;;;10.80;99.90;;;;;;7281838;19;20188;-84
2023/12/29 06:49:42;;;;;;;15.47;2.03;;;10.80;99.90;;;;;;7282978;19;20178;-85
2023/12/29 06:52:08;;;;;;;15.73;2.33;;;10.70;99.90;;;;;;7279764;19;20195;-83
2023/12/29 06:54:34;;;;;;;13.57;1.80;;;10.70;99.90;;;;;;7281261;19;20188;-83
2023/12/29 06:57:00;;;;;;;23.97;2.43;;;10.70;99.90;;;;;;7281096;19;20198;-82
2023/12/29 06:59:26;;;;;;;17.10;2.17;;;10.80;99.90;;;;;;7278908;19;20227;-83
2023/12/29 07:01:51;;;;;;;15.53;1.90;;;10.70;99.90;;;;;;7291412;19;20648;-82
2023/12/29 07:04:17;;;;;;;16.87;2.73;;;10.70;99.90;;;;;;7305467;19;20198;-84
2023/12/29 07:06:43;;;;;;;15.43;1.90;;;10.70;99.90;;;;;;7281059;19;20210;-83
2023/12/29 07:09:09;;;;;;;15.37;2.37;;;10.80;99.90;;;;;;7284279;19;20187;-83
2023/12/29 07:11:35;;;;;;;19.83;3.00;;;10.80;99.90;;;;;;7281502;19;20840;-83
2023/12/29 07:14:02;;;;;;;15.53;2.00;;;10.80;99.90;;;;;;7282302;19;20209;-83
2023/12/29 07:16:28;;;;;;;15.90;2.37;;;10.80;99.90;;;;;;7283931;19;20682;-81
2023/12/29 07:18:54;;;;;;;18.73;2.67;;;10.80;99.90;;;;;;7282553;19;20191;-82
2023/12/29 07:21:19;;;;;;;16.47;3.00;;;10.90;99.90;;;;;;7303969;19;20224;-83
2023/12/29 07:23:45;;;;;;;12.33;2.13;;;10.90;99.90;;;;;;7282911;19;20302;-81
2023/12/29 07:26:11;;;;;;;13.07;2.10;;;10.90;99.90;;;;;;7282258;19;20193;-83
2023/12/29 07:28:37;;;;;;;12.47;2.10;;;10.80;99.90;;;;;;7282290;19;20192;-83
2023/12/29 07:31:03;;;;;;;9.97;1.53;;;10.80;99.90;;;;;;7283187;19;20248;-84
2023/12/29 07:33:29;;;;;;;16.10;2.50;;;10.90;99.90;;;;;;7284397;19;20180;-84
2023/12/29 07:35:55;;;;;;;15.93;2.10;;;10.90;99.90;;;;;;7293756;19;20183;-82
2023/12/29 07:38:21;;;;;;;15.30;2.23;;;11.00;99.90;;;;;;7303131;19;20191;-82
2023/12/29 07:40:49;;;;;;;16.70;1.93;;;10.90;99.90;;;;;;7297904;19;20258;-84
2023/12/29 07:43:15;;;;;;;16.80;1.83;;;10.90;99.90;;;;;;7282701;19;20179;-84
2023/12/29 07:45:43;;;;;;;17.33;1.97;;;10.90;99.90;;;;;;7280053;19;20204;-83
2023/12/29 07:48:09;;;;;;;14.07;1.80;;;10.90;99.90;;;;;;7282652;19;20543;-84
2023/12/29 07:50:35;;;;;;;15.33;2.30;;;10.90;99.90;;;;;;7282675;19;20192;-85
2023/12/29 07:53:02;;;;;;;8.43;1.67;;;10.90;99.90;;;;;;7281176;19;20191;-83
2023/12/29 07:55:30;;;;;;;17.23;2.10;;;10.90;99.90;;;;;;7283340;19;20191;-85
2023/12/29 07:57:55;;;;;;;12.87;1.90;;;10.90;99.90;;;;;;7281902;19;20189;-87
2023/12/29 08:00:22;;;;;;;12.50;1.50;;;10.90;99.90;;;;;;7296717;19;20185;-85
2023/12/29 08:02:49;;;;;;;16.70;2.07;;;10.90;99.90;;;;;;7309965;19;20208;-87
2023/12/29 08:05:16;;;;;;;13.40;1.80;;;11.00;99.90;;;;;;7289368;19;20207;-85
2023/12/29 08:07:43;;;;;;;14.40;1.83;;;10.90;99.90;;;;;;7287875;19;20265;-86
2023/12/29 08:10:09;;;;;;;13.60;1.70;;;10.90;99.90;;;;;;7287577;19;20260;-86
2023/12/29 08:12:38;;;;;;;17.23;1.80;;;10.90;99.90;;;;;;7288820;19;20184;-84
2023/12/29 08:15:05;;;;;;;15.30;1.73;;;10.90;99.90;;;;;;7289872;19;20252;-85
2023/12/29 08:17:31;;;;;;;15.10;1.50;;;10.90;99.90;;;;;;7288466;19;20640;-86
2023/12/29 08:19:57;;;;;;;11.87;1.60;;;10.90;99.90;;;;;;7288820;19;20248;-87
2023/12/29 08:22:23;;;;;;;17.13;2.53;;;11.00;99.90;;;;;;7288991;19;20195;-85
2023/12/29 08:24:48;;;;;;;13.50;1.93;;;11.00;99.90;;;;;;7310513;19;20179;-85
2023/12/29 08:27:22;;;;;;;12.33;2.03;;;11.10;99.90;;;;;;7288232;19;20199;-84
2023/12/29 08:29:47;;;;;;;10.33;1.70;;;11.10;99.90;;;;;;7290647;19;20181;-86
2023/12/29 08:32:13;;;;;;;14.57;2.00;;;11.10;99.90;;;;;;7288757;19;20184;-86
2023/12/29 08:34:42;;;;;;;15.70;2.10;;;11.20;99.90;;;;;;7286493;19;20197;-85
2023/12/29 08:37:08;;;;;;;12.30;1.70;;;11.10;99.90;;;;;;7287335;19;20191;-84
2023/12/29 08:39:33;;;;;;;17.17;2.20;;;11.20;99.90;;;;;;7288057;19;20659;-84
2023/12/29 08:41:59;;;;;;;15.10;2.13;;;11.20;99.90;;;;;;7287349;19;20208;-84
2023/12/29 08:44:25;;;;;;;12.73;1.90;;;11.30;99.90;;;;;;7284841;19;20204;-84
2023/12/29 08:46:51;;;;;;;12.17;2.10;;;11.30;99.90;;;;;;7304131;19;20299;-84
2023/12/29 08:49:17;;;;;;;10.53;1.80;;;11.30;99.90;;;;;;7300194;19;20197;-83
2023/12/29 08:51:42;;;;;;;17.47;2.27;;;11.30;99.90;;;;;;7287043;19;20261;-84
2023/12/29 08:54:09;;;;;;;15.97;1.93;;;11.30;99.90;;;;;;7287573;19;20223;-83
2023/12/29 08:56:35;;;;;;;14.33;1.80;;;11.20;99.90;;;;;;7287699;19;20195;-84
2023/12/29 08:59:00;;;;;;;16.20;2.03;;;11.30;99.90;;;;;;7287585;19;20195;-84
2023/12/29 09:01:26;;;;;;;14.73;2.23;;;11.20;99.90;;;;;;7286021;19;20655;-83
2023/12/29 09:03:52;;;;;;;14.80;1.93;;;11.30;99.90;;;;;;7293974;19;20185;-84
2023/12/29 09:06:19;;;;;;;9.40;1.70;;;11.30;99.90;;;;;;7308462;19;20301;-84
2023/12/29 09:08:44;;;;;;;17.30;2.20;;;11.40;99.90;;;;;;7286048;19;20628;-84
2023/12/29 09:11:10;;;;;;;12.27;1.80;;;11.40;99.90;;;;;;7287230;19;21989;-83
2023/12/29 09:13:36;;;;;;;16.40;2.13;;;11.50;99.90;;;;;;7283933;19;20193;-83
2023/12/29 09:16:02;;;;;;;13.53;1.83;;;11.60;99.90;;;;;;7288677;19;20573;-84
2023/12/29 09:18:28;;;;;;;12.17;2.23;;;11.70;99.90;;;;;;7285514;19;20586;-85
2023/12/29 09:20:53;;;;;;;12.30;1.87;;;11.70;99.90;;;;;;7286944;19;20289;-84
2023/12/29 09:23:20;;;;;;;8.03;1.50;;;11.90;99.90;;;;;;7307189;19;20189;-84
2023/12/29 09:25:45;;;;;;;11.00;1.80;;;12.00;99.90;;;;;;7285540;19;20276;-85
2023/12/29 09:28:12;;;;;;;10.47;1.57;;;11.90;99.90;;;;;;7287135;19;20642;-83
2023/12/29 09:30:37;;;;;;;11.00;1.60;;;11.90;99.90;;;;;;7287053;19;20193;-83
2023/12/29 09:33:03;;;;;;;15.27;2.07;;;12.00;99.90;;;;;;7286867;19;20197;-84
2023/12/29 09:35:29;;;;;;;9.57;1.60;;;12.00;99.90;;;;;;7284543;19;20189;-83
2023/12/29 09:37:55;;;;;;;11.07;1.93;;;12.00;99.90;;;;;;7285796;19;20203;-84
2023/12/29 09:40:21;;;;;;;13.73;1.70;;;11.90;99.90;;;;;;7307798;19;20189;-84
2023/12/29 09:42:48;;;;;;;14.57;1.80;;;12.00;99.90;;;;;;7285793;19;20193;-84
2023/12/29 09:45:17;;;;;;;12.30;2.37;;;12.10;99.90;;;;;;7286477;19;20191;-84
2023/12/29 09:47:43;;;;;;;11.07;2.40;;;12.10;99.90;;;;;;7286247;19;20325;-84
2023/12/29 09:50:12;;;;;;;11.73;1.90;;;12.00;99.90;;;;;;7287228;19;20540;-84
2023/12/29 09:52:39;;;;;;;14.30;2.20;;;12.00;99.90;;;;;;7285159;19;20663;-84
2023/12/29 09:55:10;;;;;;;11.73;2.10;;;11.90;99.90;;;;;;7287904;19;20931;-84
2023/12/29 09:57:39;;;;;;;11.93;2.07;;;11.90;99.90;;;;;;7287271;19;20291;-83
2023/12/29 10:00:10;;;;;;;12.33;1.70;;;12.00;99.90;;;;;;7284985;19;20197;-83
2023/12/29 10:02:38;;;;;;;10.60;1.70;;;11.90;99.90;;;;;;7286657;19;20256;-84
2023/12/29 10:05:05;;;;;;;15.37;1.93;;;11.90;99.90;;;;;;7284015;19;20185;-83
2023/12/29 10:07:38;;;;;;;15.00;1.70;;;12.00;99.90;;;;;;7284890;19;20189;-85
2023/12/29 10:10:06;;;;;;;13.37;2.00;;;12.10;99.90;;;;;;7285645;19;20589;-85
2023/12/29 10:12:33;;;;;;;13.33;1.70;;;12.10;99.90;;;;;;7284176;19;20252;-84
2023/12/29 10:15:24;;;;;;;13.60;2.17;;;12.10;99.90;;;;;;7275440;19;20228;-83
2023/12/29 10:18:12;;;;;;;17.70;2.40;;;12.20;99.90;;;;;;7280972;19;20224;-83
2023/12/29 10:21:03;;;;;;;19.63;1.87;;;12.40;99.90;;;;;;7177165;19;2004759;-83
2023/12/29 10:23:45;;;;;;;12.03;1.90;;;12.40;99.90;;;;;;7177038;19;2006657;-83
2023/12/29 10:26:12;;;;;;;14.13;2.10;;;12.50;99.90;;;;;;7281225;19;20208;-83
2023/12/29 10:28:38;;;;;;;10.10;1.60;;;12.60;99.90;;;;;;7279677;19;20203;-83
2023/12/29 10:31:14;;;;;;;10.80;1.70;;;12.80;99.90;;;;;;7280224;19;20185;-82
2023/12/29 10:33:40;;;;;;;15.30;1.80;;;12.80;99.90;;;;;;7280545;19;20272;-83
2023/12/29 10:36:07;;;;;;;9.07;1.70;;;12.60;99.90;;;;;;7276448;19;20251;-83
2023/12/29 10:38:33;;;;;;;9.70;1.90;;;12.50;99.90;;;;;;7280133;19;20198;-83
2023/12/29 10:41:16;;;;;;;7.33;1.70;;;12.50;99.90;;;;;;7278747;19;20197;-83
2023/12/29 10:43:43;;;;;;;13.77;2.10;;;12.60;99.90;;;;;;7279806;19;20204;-83
2023/12/29 10:46:10;;;;;;;14.47;2.50;;;12.70;99.90;;;;;;7278306;19;20200;-84
2023/12/29 10:48:37;;;;;;;10.17;1.60;;;12.60;99.90;;;;;;7278216;19;20195;-82
2023/12/29 10:51:04;;;;;;;11.20;1.57;;;12.70;99.90;;;;;;7278260;19;20213;-82
2023/12/29 10:53:34;;;;;;;12.37;2.17;;;12.70;99.90;;;;;;7277980;19;20200;-83
2023/12/29 10:56:00;;;;;;;9.20;1.80;;;12.70;99.90;;;;;;7276718;19;20193;-82
2023/12/29 10:58:29;;;;;;;9.60;1.30;;;12.80;99.90;;;;;;7277457;19;20197;-82
2023/12/29 11:01:01;;;;;;;9.47;1.47;;;12.90;99.90;;;;;;7278571;19;20337;-81
2023/12/29 11:03:26;;;;;;;9.13;1.57;;;13.00;99.90;;;;;;7279277;19;20204;-82
2023/12/29 11:06:01;;;;;;;11.87;1.60;;;13.00;99.90;;;;;;7292901;19;20189;-81
2023/12/29 11:08:27;;;;;;;13.00;1.93;;;13.00;99.90;;;;;;7277960;19;20257;-81
2023/12/29 11:10:55;;;;;;;12.87;1.60;;;13.00;99.90;;;;;;7288310;19;20186;-82
2023/12/29 11:13:21;;;;;;;10.07;2.10;;;13.00;99.90;;;;;;7301491;19;20656;-83
2023/12/29 11:15:47;;;;;;;8.27;1.60;;;13.00;99.90;;;;;;7278063;19;20193;-82
2023/12/29 11:18:15;;;;;;;10.63;1.70;;;13.00;99.90;;;;;;7278078;19;20206;-82
2023/12/29 11:20:46;;;;;;;12.43;1.93;;;12.90;99.90;;;;;;7277998;19;20192;-81
2023/12/29 11:23:15;;;;;;;9.57;1.97;;;12.80;99.90;;;;;;7278809;19;20202;-82
2023/12/29 11:25:45;;;;;;;12.00;1.43;;;12.80;99.90;;;;;;7278994;19;20197;-82
2023/12/29 11:28:12;;;;;;;12.73;2.03;;;12.90;99.90;;;;;;7276919;19;20200;-81
2023/12/29 11:30:39;;;;;;;9.80;1.47;;;12.90;99.90;;;;;;7277236;19;20209;-81
2023/12/29 11:33:18;;;;;;;14.57;1.97;;;12.90;99.90;;;;;;7279343;19;20193;-80
2023/12/29 11:35:59;;;;;;;13.23;2.03;;;13.00;99.90;;;;;;7278295;19;20675;-81
2023/12/29 11:38:56;;;;;;;11.97;2.10;;;13.10;99.90;;;;;;7262834;19;20242;-80
2023/12/29 11:41:27;;;;;;;13.50;1.80;;;13.00;99.90;;;;;;7285754;19;20286;-81
2023/12/29 11:44:00;;;;;;;12.33;1.60;;;12.90;99.90;;;;;;7267623;19;20205;-81
2023/12/29 11:46:44;;;;;;;12.23;1.80;;;12.80;99.90;;;;;;7283385;19;20196;-81
2023/12/29 11:49:10;;;;;;;10.57;1.60;;;12.60;99.90;;;;;;7284049;19;20674;-83
2023/12/29 11:51:40;;;;;;;14.40;2.17;;;12.50;99.90;;;;;;7283398;19;20735;-82
2023/12/29 11:54:10;;;;;;;12.27;2.10;;;12.40;99.90;;;;;;7284607;19;20185;-82
2023/12/29 11:56:40;;;;;;;10.37;1.97;;;12.40;99.90;;;;;;7285072;19;20248;-82
2023/12/29 11:59:19;;;;;;;12.07;1.83;;;12.20;99.90;;;;;;7284847;19;20189;-82
2023/12/29 12:01:54;;;;;;;13.57;2.13;;;12.20;99.90;;;;;;7285537;19;21571;-83
2023/12/29 12:04:46;;;;;;;8.90;1.77;;;12.10;99.90;;;;;;7284663;19;20189;-83
2023/12/29 12:07:36;;;;;;;15.53;2.10;;;12.10;99.90;;;;;;7181103;19;2004863;-82
2023/12/29 12:10:19;;;;;;;14.60;1.80;;;12.10;99.90;;;;;;7181298;19;2004704;-83
2023/12/29 12:12:46;;;;;;;11.47;1.37;;;12.00;99.90;;;;;;7283264;19;20271;-83
2023/12/29 12:15:44;;;;;;;10.63;1.97;;;12.00;99.90;;;;;;7284387;19;20321;-83
2023/12/29 12:18:11;;;;;;;10.07;1.63;;;12.00;99.90;;;;;;7178588;19;2006356;-82
2023/12/29 12:20:38;;;;;;;11.03;1.80;;;12.00;99.90;;;;;;7282977;19;20182;-82
2023/12/29 12:23:18;;;;;;;8.53;1.53;;;12.00;99.90;;;;;;7282928;19;20196;-83
2023/12/29 12:25:46;;;;;;;10.90;1.50;;;12.10;99.90;;;;;;7283435;19;20250;-84
2023/12/29 12:28:14;;;;;;;8.87;1.33;;;12.00;99.90;;;;;;7281575;19;20193;-83
2023/12/29 12:30:40;;;;;;;11.00;1.57;;;12.00;99.90;;;;;;7282826;19;20185;-83
2023/12/29 12:33:05;;;;;;;11.67;1.40;;;12.00;99.90;;;;;;7284197;19;20225;-82
2023/12/29 12:35:32;;;;;;;9.80;1.70;;;11.90;99.90;;;;;;7279161;19;20189;-82
2023/12/29 12:38:30;;;;;;;11.60;1.80;;;12.00;99.90;;;;;;7280693;19;20793;-82
2023/12/29 12:40:56;;;;;;;10.57;1.80;;;12.10;99.90;;;;;;7261526;19;20196;-82